createdAt,value
2022-12-20T00:00:27.431Z,1.10
2022-12-20T00:02:29.519Z,0.93
2022-12-20T00:04:31.627Z,1.30
2022-12-20T00:06:36.314Z,1.00
2022-12-20T00:08:39.307Z,0.77
2022-12-20T00:10:44.207Z,1.10
2022-12-20T00:12:46.199Z,0.90
2022-12-20T00:14:48.146Z,1.15
2022-12-20T00:16:50.726Z,0.57
2022-12-20T00:18:55.083Z,0.90
2022-12-20T00:21:00.787Z,0.77
2022-12-20T00:23:03.163Z,0.68
2022-12-20T00:25:06.210Z,1.05
2022-12-20T00:27:08.141Z,1.77
2022-12-20T00:29:10.173Z,0.90
2022-12-20T00:31:14.451Z,1.50
2022-12-20T00:33:16.471Z,1.10
2022-12-20T00:35:18.587Z,0.77
2022-12-20T00:37:20.524Z,0.82
2022-12-20T00:39:22.461Z,0.73
2022-12-20T00:41:27.970Z,0.88
2022-12-20T00:43:30.860Z,1.40
2022-12-20T00:45:32.768Z,1.10
2022-12-20T00:47:35.267Z,1.10
2022-12-20T00:49:37.164Z,1.55
2022-12-20T00:51:39.243Z,1.15
2022-12-20T00:53:41.893Z,1.38
2022-12-20T00:55:46.134Z,0.88
2022-12-20T00:57:48.273Z,0.98
2022-12-20T00:59:50.198Z,0.80
2022-12-20T01:01:52.344Z,0.70
2022-12-20T01:03:54.906Z,0.88
2022-12-20T01:06:00.831Z,0.90
2022-12-20T01:08:02.879Z,1.20
2022-12-20T01:10:05.150Z,0.70
2022-12-20T01:12:07.467Z,0.93
2022-12-20T01:14:14.972Z,0.50
2022-12-20T01:16:20.491Z,0.98
2022-12-20T01:18:22.875Z,0.95
2022-12-20T01:20:25.074Z,0.68
2022-12-20T01:22:27.010Z,0.93
2022-12-20T01:24:28.977Z,0.95
2022-12-20T01:26:30.943Z,0.80
2022-12-20T01:28:33.240Z,0.73
2022-12-20T01:30:35.131Z,0.70
2022-12-20T01:32:37.090Z,1.00
2022-12-20T01:34:39.119Z,0.50
2022-12-20T01:36:41.096Z,0.50
2022-12-20T01:38:43.331Z,0.45
2022-12-20T01:40:45.829Z,0.40
2022-12-20T01:42:47.727Z,0.70
2022-12-20T01:44:55.187Z,0.40
2022-12-20T01:46:57.063Z,0.50
2022-12-20T01:49:02.632Z,1.15
2022-12-20T01:51:05.110Z,0.50
2022-12-20T01:53:07.169Z,0.70
2022-12-20T01:55:15.345Z,0.63
2022-12-20T01:57:23.847Z,0.50
2022-12-20T01:59:27.384Z,0.82
2022-12-20T02:01:29.407Z,0.57
2022-12-20T02:03:33.867Z,0.52
2022-12-20T02:05:39.973Z,0.40
2022-12-20T02:07:44.197Z,0.80
2022-12-20T02:09:46.826Z,1.05
2022-12-20T02:11:58.444Z,0.68
2022-12-20T02:14:06.542Z,0.80
2022-12-20T02:16:08.669Z,0.95
2022-12-20T02:18:16.858Z,0.80
2022-12-20T02:20:22.296Z,0.77
2022-12-20T02:22:27.682Z,0.73
2022-12-20T02:24:34.178Z,0.85
2022-12-20T02:26:39.728Z,0.82
2022-12-20T02:28:47.987Z,0.82
2022-12-20T02:30:55.125Z,0.82
2022-12-20T02:33:03.422Z,1.17
2022-12-20T02:35:08.103Z,1.02
2022-12-20T02:37:10.757Z,0.90
2022-12-20T02:39:16.495Z,0.50
2022-12-20T02:41:27.486Z,1.15
2022-12-20T02:43:35.320Z,0.60
2022-12-20T02:45:38.157Z,1.05
2022-12-20T02:47:43.699Z,0.98
2022-12-20T02:49:47.695Z,0.65
2022-12-20T02:51:52.225Z,0.90
2022-12-20T02:53:54.346Z,1.17
2022-12-20T02:56:05.793Z,0.90
2022-12-20T02:58:18.624Z,1.17
2022-12-20T03:00:23.464Z,0.70
2022-12-20T03:02:26.205Z,1.25
2022-12-20T03:04:30.720Z,1.55
2022-12-20T03:06:32.631Z,0.98
2022-12-20T03:08:34.513Z,1.15
2022-12-20T03:10:36.453Z,1.15
2022-12-20T03:12:38.484Z,1.15
2022-12-20T03:14:40.874Z,0.75
2022-12-20T03:16:42.943Z,0.95
2022-12-20T03:18:46.279Z,1.33
2022-12-20T03:20:48.867Z,1.60
2022-12-20T03:22:50.916Z,1.10
2022-12-20T03:24:53.049Z,1.65
2022-12-20T03:26:55.047Z,1.60
2022-12-20T03:28:57.056Z,1.67
2022-12-20T03:30:59.190Z,1.10
2022-12-20T03:33:01.188Z,1.02
2022-12-20T03:35:03.170Z,1.02
2022-12-20T03:37:05.098Z,1.60
2022-12-20T03:39:06.959Z,0.90
2022-12-20T03:41:08.920Z,1.13
2022-12-20T03:43:10.863Z,1.58
2022-12-20T03:45:13.099Z,1.20
2022-12-20T03:47:15.032Z,1.55
2022-12-20T03:49:17.190Z,1.63
2022-12-20T03:51:19.619Z,0.90
2022-12-20T03:53:21.667Z,1.17
2022-12-20T03:55:24.113Z,1.33
2022-12-20T03:57:26.070Z,1.30
2022-12-20T03:59:27.979Z,2.08
2022-12-20T04:01:30.773Z,1.40
2022-12-20T04:03:32.877Z,1.55
2022-12-20T04:05:34.916Z,1.73
2022-12-20T04:07:36.820Z,1.25
2022-12-20T04:09:38.830Z,1.42
2022-12-20T04:11:40.824Z,1.33
2022-12-20T04:13:48.051Z,1.67
2022-12-20T04:15:53.028Z,2.05
2022-12-20T04:17:57.289Z,1.20
2022-12-20T04:19:59.222Z,1.85
2022-12-20T04:22:05.677Z,1.38
2022-12-20T04:24:08.526Z,1.60
2022-12-20T04:26:11.426Z,2.13
2022-12-20T04:28:13.543Z,2.83
2022-12-20T04:30:15.609Z,2.00
2022-12-20T04:32:17.531Z,2.22
2022-12-20T04:34:19.513Z,2.53
2022-12-20T04:36:21.944Z,2.13
2022-12-20T04:38:24.172Z,1.77
2022-12-20T04:40:26.148Z,1.58
2022-12-20T04:42:28.100Z,1.25
2022-12-20T04:44:30.059Z,1.45
2022-12-20T04:46:32.107Z,1.55
2022-12-20T04:48:55.618Z,1.40
2022-12-20T04:50:56.916Z,1.30
2022-12-20T04:53:01.949Z,1.25
2022-12-20T04:55:04.092Z,1.65
2022-12-20T04:57:06.045Z,1.50
2022-12-20T04:59:07.961Z,1.88
2022-12-20T05:01:30.210Z,1.48
2022-12-20T05:03:32.245Z,1.40
2022-12-20T05:07:51.247Z,1.45
2022-12-20T05:09:53.161Z,1.60
2022-12-20T05:11:55.050Z,1.80
2022-12-20T05:13:57.446Z,1.13
2022-12-20T05:15:59.673Z,1.25
2022-12-20T05:18:02.189Z,1.90
2022-12-20T05:20:05.539Z,2.25
2022-12-20T05:22:10.501Z,1.48
2022-12-20T05:24:15.626Z,2.28
2022-12-20T05:26:17.698Z,2.05
2022-12-20T05:28:19.660Z,2.63
2022-12-20T05:30:22.127Z,2.03
2022-12-20T05:32:24.077Z,1.60
2022-12-20T05:34:26.070Z,1.75
2022-12-20T05:36:28.512Z,1.50
2022-12-20T05:38:30.456Z,1.40
2022-12-20T05:40:32.348Z,1.58
2022-12-20T05:42:34.766Z,1.17
2022-12-20T05:44:36.955Z,1.65
2022-12-20T05:46:38.895Z,1.63
2022-12-20T05:48:40.959Z,1.33
2022-12-20T05:50:44.543Z,1.30
2022-12-20T05:52:46.549Z,1.10
2022-12-20T05:54:48.584Z,1.38
2022-12-20T05:56:50.535Z,1.50
2022-12-20T05:58:52.671Z,1.45
2022-12-20T06:00:54.603Z,1.20
2022-12-20T06:02:56.645Z,1.60
2022-12-20T06:04:59.472Z,1.60
2022-12-20T06:07:01.529Z,1.35
2022-12-20T06:09:03.670Z,1.20
2022-12-20T06:11:07.184Z,1.20
2022-12-20T06:13:09.858Z,1.20
2022-12-20T06:15:11.979Z,1.65
2022-12-20T06:17:13.905Z,1.73
2022-12-20T06:19:21.088Z,1.08
2022-12-20T06:21:23.655Z,1.42
2022-12-20T06:23:25.922Z,1.40
2022-12-20T06:25:28.283Z,1.30
2022-12-20T06:27:30.283Z,1.20
2022-12-20T06:29:32.211Z,1.50
2022-12-20T06:31:34.384Z,1.17
2022-12-20T06:33:37.239Z,1.05
2022-12-20T06:35:39.190Z,1.85
2022-12-20T06:37:42.053Z,1.05
2022-12-20T06:39:44.110Z,1.75
2022-12-20T06:41:46.019Z,0.75
2022-12-20T06:43:48.029Z,0.60
2022-12-20T06:45:50.310Z,0.60
2022-12-20T06:47:52.283Z,0.40
2022-12-20T06:49:54.248Z,0.10
2022-12-20T06:51:56.250Z,0.20
2022-12-20T06:53:58.128Z,0.17
2022-12-20T06:56:00.099Z,0.10
2022-12-20T06:58:03.530Z,0.10
2022-12-20T07:00:06.311Z,0.10
2022-12-20T07:02:12.000Z,0.10
2022-12-20T07:04:33.931Z,0.10
2022-12-20T07:08:51.511Z,0.17
2022-12-20T07:10:54.668Z,0.10
2022-12-20T07:12:56.919Z,0.10
2022-12-20T07:14:58.947Z,0.10
2022-12-20T07:17:00.958Z,0.10
2022-12-20T07:19:03.445Z,0.10
2022-12-20T07:21:06.653Z,0.10
2022-12-20T07:23:08.735Z,0.10
2022-12-20T07:25:11.550Z,0.10
2022-12-20T07:27:14.022Z,0.13
2022-12-20T07:29:16.372Z,0.20
2022-12-20T07:31:18.581Z,0.20
2022-12-20T07:33:21.799Z,0.10
2022-12-20T07:35:23.845Z,0.10
2022-12-20T07:37:49.473Z,0.20
2022-12-20T07:39:51.606Z,0.17
2022-12-20T07:41:55.641Z,0.10
2022-12-20T07:43:59.591Z,0.20
2022-12-20T07:46:02.909Z,0.30
2022-12-20T07:48:11.323Z,0.28
2022-12-20T07:50:17.440Z,0.35
2022-12-20T07:52:23.634Z,0.35
2022-12-20T07:54:32.045Z,0.40
2022-12-20T07:56:41.116Z,0.32
2022-12-20T07:58:45.013Z,0.20
2022-12-20T08:00:47.040Z,0.25
2022-12-20T08:02:54.262Z,0.35
2022-12-20T08:04:57.019Z,0.30
2022-12-20T08:07:01.546Z,0.20
2022-12-20T08:09:05.972Z,0.20
2022-12-20T08:11:10.567Z,0.77
2022-12-20T08:13:13.366Z,0.40
2022-12-20T08:15:15.738Z,0.20
2022-12-20T08:17:17.766Z,0.13
2022-12-20T08:19:19.925Z,0.20
2022-12-20T08:21:22.030Z,0.10
2022-12-20T08:23:24.072Z,0.30
2022-12-20T08:25:26.271Z,0.17
2022-12-20T08:27:28.432Z,0.17
2022-12-20T08:29:30.411Z,0.20
2022-12-20T08:31:32.515Z,0.17
2022-12-20T08:33:37.720Z,0.20
2022-12-20T08:35:39.833Z,0.10
2022-12-20T08:37:42.082Z,0.10
2022-12-20T08:39:44.355Z,0.25
2022-12-20T08:41:46.438Z,0.20
2022-12-20T08:43:48.459Z,0.22
2022-12-20T08:45:55.351Z,0.20
2022-12-20T08:47:57.585Z,0.50
2022-12-20T08:49:59.609Z,0.28
2022-12-20T08:52:01.883Z,0.20
2022-12-20T08:54:03.949Z,0.43
2022-12-20T08:56:09.491Z,0.22
2022-12-20T08:58:12.385Z,0.30
2022-12-20T09:00:15.307Z,0.45
2022-12-20T09:02:17.534Z,0.38
2022-12-20T09:04:19.690Z,0.30
2022-12-20T09:06:23.503Z,0.40
2022-12-20T09:08:25.541Z,0.50
2022-12-20T09:10:27.706Z,0.30
2022-12-20T09:12:29.647Z,0.25
2022-12-20T09:14:32.527Z,0.30
2022-12-20T09:16:34.593Z,0.30
2022-12-20T09:18:37.360Z,0.40
2022-12-20T09:20:44.113Z,0.85
2022-12-20T09:22:46.228Z,0.32
2022-12-20T09:24:49.349Z,0.32
2022-12-20T09:26:52.296Z,0.35
2022-12-20T09:28:54.562Z,1.20
2022-12-20T09:31:00.556Z,0.60
2022-12-20T09:33:10.357Z,0.75
2022-12-20T09:35:16.576Z,0.57
2022-12-20T09:37:21.466Z,1.55
2022-12-20T09:39:23.504Z,0.40
2022-12-20T09:41:30.139Z,0.50
2022-12-20T09:43:33.240Z,0.40
2022-12-20T09:45:37.540Z,0.63
2022-12-20T09:47:39.744Z,0.75
2022-12-20T09:49:45.918Z,1.83
2022-12-20T09:51:54.210Z,1.00
2022-12-20T09:53:59.783Z,0.43
2022-12-20T09:56:10.784Z,0.82
2022-12-20T09:58:21.724Z,0.20
2022-12-20T10:00:24.147Z,0.70
2022-12-20T10:04:53.999Z,0.40
2022-12-20T10:06:59.592Z,0.38
2022-12-20T10:09:05.048Z,0.50
2022-12-20T10:11:14.804Z,0.35
2022-12-20T10:13:22.683Z,0.40
2022-12-20T10:15:33.962Z,0.40
2022-12-20T10:17:39.599Z,0.45
2022-12-20T10:19:45.269Z,0.95
2022-12-20T10:21:53.189Z,0.40
2022-12-20T10:24:02.090Z,0.50
2022-12-20T10:26:11.168Z,0.60
2022-12-20T10:28:16.296Z,0.50
2022-12-20T10:30:22.941Z,0.40
2022-12-20T10:32:25.932Z,0.70
2022-12-20T10:34:31.787Z,0.65
2022-12-20T10:36:38.997Z,0.50
2022-12-20T10:38:45.868Z,0.55
2022-12-20T10:43:42.591Z,0.95
2022-12-20T10:45:56.942Z,0.65
2022-12-20T10:48:01.421Z,0.57
2022-12-20T10:50:14.032Z,0.60
2022-12-20T10:52:17.723Z,0.80
2022-12-20T10:54:25.208Z,0.40
2022-12-20T10:56:30.489Z,0.73
2022-12-20T10:58:35.781Z,0.95
2022-12-20T11:00:38.519Z,0.65
2022-12-20T11:02:42.668Z,0.70
2022-12-20T11:04:59.150Z,0.73
2022-12-20T11:07:22.056Z,0.90
2022-12-20T11:09:29.098Z,0.75
2022-12-20T11:11:31.110Z,0.75
2022-12-20T11:13:33.167Z,0.75
2022-12-20T11:15:37.026Z,0.70
2022-12-20T11:17:47.603Z,0.95
2022-12-20T11:19:56.005Z,0.77
2022-12-20T11:22:08.618Z,0.80
2022-12-20T11:24:17.655Z,0.75
2022-12-20T11:26:29.444Z,0.98
2022-12-20T11:28:34.990Z,0.60
2022-12-20T11:30:47.460Z,1.08
2022-12-20T11:33:00.087Z,1.10
2022-12-20T11:35:06.617Z,1.02
2022-12-20T11:37:17.677Z,1.40
2022-12-20T11:39:26.016Z,1.10
2022-12-20T11:41:29.843Z,0.93
2022-12-20T11:44:08.186Z,1.35
2022-12-20T11:46:10.495Z,1.38
2022-12-20T11:48:31.395Z,1.10
2022-12-20T11:52:46.217Z,0.98
2022-12-20T11:54:57.184Z,1.03
2022-12-20T11:57:07.702Z,0.60
2022-12-20T11:59:13.600Z,0.90
2022-12-20T12:01:19.804Z,0.77
2022-12-20T12:03:30.828Z,1.40
2022-12-20T12:05:39.287Z,0.77
2022-12-20T12:07:44.865Z,1.20
2022-12-20T12:09:59.155Z,1.20
2022-12-20T12:12:09.173Z,1.10
2022-12-20T12:14:17.180Z,1.63
2022-12-20T12:16:27.013Z,1.30
2022-12-20T12:18:32.143Z,1.23
2022-12-20T12:20:40.396Z,1.40
2022-12-20T12:22:44.617Z,1.80
2022-12-20T12:24:51.976Z,2.05
2022-12-20T12:26:54.471Z,1.67
2022-12-20T12:29:01.900Z,1.95
2022-12-20T12:31:11.877Z,1.98
2022-12-20T12:33:25.734Z,1.60
2022-12-20T12:35:34.075Z,1.92
2022-12-20T12:37:46.781Z,1.13
2022-12-20T12:39:55.010Z,1.92
2022-12-20T12:42:03.315Z,1.35
2022-12-20T12:44:25.711Z,1.85
2022-12-20T12:46:33.492Z,1.63
2022-12-20T12:48:39.042Z,2.47
2022-12-20T12:50:47.537Z,1.55
2022-12-20T12:52:54.000Z,1.65
2022-12-20T12:54:56.245Z,1.48
2022-12-20T12:57:03.553Z,1.60
2022-12-20T12:59:07.371Z,1.20
2022-12-20T13:01:11.537Z,2.72
2022-12-20T13:03:17.056Z,1.48
2022-12-20T13:05:26.166Z,1.45
2022-12-20T13:07:33.183Z,1.75
2022-12-20T13:09:39.870Z,2.22
2022-12-20T13:11:46.840Z,1.58
2022-12-20T13:13:49.921Z,1.95
2022-12-20T13:15:53.255Z,2.03
2022-12-20T13:17:58.828Z,1.55
2022-12-20T13:20:01.611Z,1.38
2022-12-20T13:22:07.105Z,1.55
2022-12-20T13:24:15.324Z,1.02
2022-12-20T13:26:23.707Z,1.50
2022-12-20T13:28:26.522Z,1.00
2022-12-20T13:30:29.083Z,1.98
2022-12-20T13:32:37.767Z,2.15
2022-12-20T13:34:56.010Z,1.83
2022-12-20T13:36:59.965Z,1.40
2022-12-20T13:39:06.316Z,2.33
2022-12-20T13:41:14.484Z,1.80
2022-12-20T13:43:26.217Z,1.73
2022-12-20T13:45:29.007Z,1.70
2022-12-20T13:47:37.945Z,1.85
2022-12-20T13:49:43.085Z,1.40
2022-12-20T13:51:45.149Z,1.60
2022-12-20T13:54:08.504Z,2.13
2022-12-20T13:56:36.741Z,1.95
2022-12-20T13:58:43.940Z,1.70
2022-12-20T14:00:47.893Z,1.65
2022-12-20T14:02:50.066Z,1.83
2022-12-20T14:04:59.636Z,1.67
2022-12-20T14:07:02.971Z,1.65
2022-12-20T14:09:05.981Z,2.65
2022-12-20T14:11:11.143Z,1.80
2022-12-20T14:13:19.384Z,2.33
2022-12-20T14:15:23.106Z,1.98
2022-12-20T14:17:28.734Z,1.65
2022-12-20T14:19:30.824Z,1.70
2022-12-20T14:21:40.145Z,2.35
2022-12-20T14:23:45.784Z,1.42
2022-12-20T14:25:55.103Z,2.13
2022-12-20T14:27:58.502Z,2.38
2022-12-20T14:30:00.748Z,2.50
2022-12-20T14:32:03.864Z,1.67
2022-12-20T14:34:14.317Z,2.10
2022-12-20T14:36:17.226Z,2.10
2022-12-20T14:38:24.348Z,1.85
2022-12-20T14:40:27.903Z,1.95
2022-12-20T14:42:36.003Z,2.60
2022-12-20T14:44:38.868Z,1.42
2022-12-20T14:46:49.042Z,1.63
2022-12-20T14:49:09.023Z,1.73
2022-12-20T14:51:12.435Z,2.17
2022-12-20T14:53:20.240Z,1.48
2022-12-20T14:55:30.550Z,1.85
2022-12-20T14:57:36.178Z,1.02
2022-12-20T14:59:38.623Z,1.83
2022-12-20T15:01:44.257Z,2.53
2022-12-20T15:03:51.818Z,2.38
2022-12-20T15:05:58.500Z,2.40
2022-12-20T15:08:07.471Z,2.05
2022-12-20T15:10:09.618Z,2.17
2022-12-20T15:12:11.854Z,2.20
2022-12-20T15:14:20.062Z,3.25
2022-12-20T15:16:25.613Z,1.98
2022-12-20T15:18:27.794Z,2.10
2022-12-20T15:20:29.780Z,1.60
2022-12-20T15:22:31.794Z,2.70
2022-12-20T15:24:33.823Z,1.98
2022-12-20T15:26:36.719Z,2.92
2022-12-20T15:28:38.846Z,1.48
2022-12-20T15:30:41.121Z,1.60
2022-12-20T15:32:54.627Z,2.25
2022-12-20T15:34:57.595Z,1.77
2022-12-20T15:37:00.418Z,1.88
2022-12-20T15:39:12.401Z,2.42
2022-12-20T15:41:19.961Z,2.75
2022-12-20T15:43:24.008Z,2.38
2022-12-20T15:45:27.540Z,2.40
2022-12-20T15:47:29.621Z,2.92
2022-12-20T15:49:32.922Z,2.28
2022-12-20T15:51:38.140Z,2.67
2022-12-20T15:53:44.721Z,1.75
2022-12-20T15:55:47.151Z,1.77
2022-12-20T15:57:49.297Z,1.85
2022-12-20T16:00:01.734Z,2.03
2022-12-20T16:02:18.920Z,2.03
2022-12-20T16:04:22.366Z,2.80
2022-12-20T16:06:24.600Z,2.63
2022-12-20T16:08:26.766Z,2.95
2022-12-20T16:10:29.007Z,2.45
2022-12-20T16:12:35.530Z,2.42
2022-12-20T16:14:37.698Z,1.92
2022-12-20T16:16:39.757Z,1.80
2022-12-20T16:18:41.859Z,1.70
2022-12-20T16:20:44.439Z,1.83
2022-12-20T16:22:46.534Z,3.35
2022-12-20T16:24:48.909Z,2.67
2022-12-20T16:26:51.909Z,2.35
2022-12-20T16:28:55.846Z,2.53
2022-12-20T16:30:57.895Z,2.30
2022-12-20T16:33:00.157Z,2.97
2022-12-20T16:35:02.245Z,3.33
2022-12-20T16:37:05.199Z,2.75
2022-12-20T16:39:07.317Z,2.20
2022-12-20T16:41:13.086Z,2.72
2022-12-20T16:43:16.226Z,3.08
2022-12-20T16:45:21.434Z,3.30
2022-12-20T16:47:23.591Z,3.60
2022-12-20T16:49:25.628Z,3.17
2022-12-20T16:51:32.188Z,3.15
2022-12-20T16:53:55.051Z,2.88
2022-12-20T16:55:56.182Z,2.63
2022-12-20T16:58:00.141Z,2.15
2022-12-20T17:00:02.850Z,3.55
2022-12-20T17:02:22.630Z,2.92
2022-12-20T17:04:26.965Z,2.00
2022-12-20T17:06:29.591Z,2.42
2022-12-20T17:10:35.677Z,2.85
2022-12-20T17:12:37.713Z,2.90
2022-12-20T17:14:39.668Z,2.72
2022-12-20T17:16:41.725Z,3.42
2022-12-20T17:18:46.803Z,2.25
2022-12-20T17:20:48.843Z,3.00
2022-12-20T17:22:53.485Z,2.92
2022-12-20T17:24:55.527Z,3.10
2022-12-20T17:26:57.814Z,2.30
2022-12-20T17:29:01.029Z,2.67
2022-12-20T17:31:08.031Z,3.15
2022-12-20T17:33:15.170Z,4.32
2022-12-20T17:35:23.503Z,3.00
2022-12-20T17:37:25.543Z,2.72
2022-12-20T17:39:27.618Z,2.50
2022-12-20T17:41:33.634Z,2.50
2022-12-20T17:43:36.167Z,2.72
2022-12-20T17:45:39.073Z,2.83
2022-12-20T17:47:41.172Z,3.75
2022-12-20T17:49:43.232Z,3.55
2022-12-20T17:51:46.071Z,4.57
2022-12-20T17:53:50.319Z,3.90
2022-12-20T17:55:52.479Z,3.90
2022-12-20T18:00:22.973Z,3.92
2022-12-20T18:02:27.659Z,2.90
2022-12-20T18:04:29.851Z,4.57
2022-12-20T18:06:33.024Z,2.40
2022-12-20T18:08:35.327Z,2.72
2022-12-20T18:10:37.374Z,3.60
2022-12-20T18:12:39.680Z,3.13
2022-12-20T18:14:41.720Z,2.70
2022-12-20T18:16:43.856Z,3.97
2022-12-20T18:18:46.613Z,2.83
2022-12-20T18:20:48.658Z,3.15
2022-12-20T18:22:50.764Z,3.45
2022-12-20T18:24:52.769Z,3.13
2022-12-20T18:26:54.853Z,3.33
2022-12-20T18:28:59.417Z,3.17
2022-12-20T18:31:03.020Z,4.53
2022-12-20T18:33:05.048Z,4.25
2022-12-20T18:35:08.468Z,3.25
2022-12-20T18:37:10.940Z,3.78
2022-12-20T18:39:13.939Z,4.30
2022-12-20T18:41:20.930Z,5.60
2022-12-20T18:43:23.021Z,4.15
2022-12-20T18:45:25.160Z,4.57
2022-12-20T18:47:27.348Z,5.70
2022-12-20T18:49:29.835Z,4.85
2022-12-20T18:51:36.921Z,6.43
2022-12-20T18:53:41.305Z,4.90
2022-12-20T18:55:43.360Z,4.63
2022-12-20T18:57:45.427Z,4.90
2022-12-20T18:59:47.486Z,5.72
2022-12-20T19:01:49.716Z,5.00
2022-12-20T19:03:52.675Z,4.57
2022-12-20T19:05:56.121Z,4.32
2022-12-20T19:07:58.175Z,4.93
2022-12-20T19:10:00.300Z,3.25
2022-12-20T19:12:02.364Z,4.40
2022-12-20T19:14:04.426Z,4.20
2022-12-20T19:16:11.315Z,3.90
2022-12-20T19:18:14.460Z,4.78
2022-12-20T19:20:16.819Z,4.18
2022-12-20T19:22:19.622Z,3.72
2022-12-20T19:24:21.681Z,3.85
2022-12-20T19:26:25.837Z,3.67
2022-12-20T19:28:28.540Z,4.88
2022-12-20T19:30:30.817Z,4.57
2022-12-20T19:32:33.167Z,4.47
2022-12-20T19:34:35.152Z,4.35
2022-12-20T19:36:40.450Z,3.97
2022-12-20T19:38:44.320Z,5.30
2022-12-20T19:40:52.529Z,3.88
2022-12-20T19:43:14.315Z,4.15
2022-12-20T19:45:16.353Z,3.40
2022-12-20T19:47:18.329Z,4.45
2022-12-20T19:49:40.446Z,3.83
2022-12-20T19:53:58.977Z,4.03
2022-12-20T19:56:01.217Z,4.55
2022-12-20T19:58:03.710Z,4.25
2022-12-20T20:00:08.918Z,4.43
2022-12-20T20:02:15.170Z,5.03
2022-12-20T20:04:17.276Z,4.65
2022-12-20T20:06:21.034Z,4.53
2022-12-20T20:08:23.127Z,4.03
2022-12-20T20:10:25.242Z,4.32
2022-12-20T20:12:27.579Z,5.05
2022-12-20T20:14:29.569Z,4.03
2022-12-20T20:16:31.687Z,3.85
2022-12-20T20:18:35.639Z,5.07
2022-12-20T20:20:40.885Z,4.70
2022-12-20T20:22:42.918Z,4.57
2022-12-20T20:24:45.338Z,4.43
2022-12-20T20:26:47.408Z,5.47
2022-12-20T20:28:49.803Z,4.43
2022-12-20T20:30:54.474Z,4.90
2022-12-20T20:32:56.683Z,4.18
2022-12-20T20:34:58.726Z,5.18
2022-12-20T20:37:01.244Z,4.28
2022-12-20T20:39:03.361Z,4.50
2022-12-20T20:41:05.696Z,4.32
2022-12-20T20:43:08.243Z,4.30
2022-12-20T20:45:11.083Z,4.30
2022-12-20T20:47:13.123Z,4.78
2022-12-20T20:49:15.216Z,4.07
2022-12-20T20:51:17.362Z,4.22
2022-12-20T20:53:19.449Z,5.10
2022-12-20T20:55:21.479Z,4.45
2022-12-20T20:57:23.517Z,4.45
2022-12-20T20:59:25.579Z,4.82
2022-12-20T21:01:27.679Z,4.55
2022-12-20T21:03:31.486Z,4.57
2022-12-20T21:07:55.657Z,4.30
2022-12-20T21:09:57.633Z,5.13
2022-12-20T21:11:59.820Z,5.13
2022-12-20T21:14:01.912Z,5.30
2022-12-20T21:16:08.479Z,5.03
2022-12-20T21:18:11.035Z,4.80
2022-12-20T21:20:13.755Z,6.28
2022-12-20T21:22:15.764Z,4.55
2022-12-20T21:24:17.775Z,4.45
2022-12-20T21:26:22.129Z,4.18
2022-12-20T21:28:24.453Z,5.20
2022-12-20T21:30:26.472Z,3.95
2022-12-20T21:32:28.827Z,3.78
2022-12-20T21:34:30.831Z,4.40
2022-12-20T21:36:32.864Z,3.75
2022-12-20T21:38:35.320Z,3.67
2022-12-20T21:40:37.355Z,4.07
2022-12-20T21:42:39.410Z,4.07
2022-12-20T21:44:41.430Z,4.20
2022-12-20T21:46:43.503Z,3.58
2022-12-20T21:48:45.675Z,3.83
2022-12-20T21:50:59.036Z,3.88
2022-12-20T21:53:01.016Z,4.80
2022-12-20T21:55:03.206Z,4.60
2022-12-20T21:57:05.199Z,3.80
2022-12-20T21:59:07.657Z,4.32
2022-12-20T22:01:09.768Z,4.75
2022-12-20T22:03:12.191Z,5.15
2022-12-20T22:05:15.330Z,4.47
2022-12-20T22:07:17.370Z,4.63
2022-12-20T22:09:19.317Z,3.92
2022-12-20T22:11:21.276Z,3.50
2022-12-20T22:13:23.217Z,4.20
2022-12-20T22:15:25.354Z,4.05
2022-12-20T22:17:27.941Z,4.13
2022-12-20T22:19:29.907Z,4.35
2022-12-20T22:21:34.074Z,4.43
2022-12-20T22:23:37.687Z,3.58
2022-12-20T22:25:40.115Z,3.65
2022-12-20T22:27:42.291Z,4.30
2022-12-20T22:29:44.701Z,3.60
2022-12-20T22:31:46.829Z,3.55
2022-12-20T22:33:49.757Z,3.60
2022-12-20T22:35:53.887Z,4.40
2022-12-20T22:37:56.009Z,4.45
2022-12-20T22:39:58.181Z,3.50
2022-12-20T22:42:00.305Z,3.83
2022-12-20T22:44:03.210Z,4.50
2022-12-20T22:46:05.952Z,4.45
2022-12-20T22:48:08.261Z,3.92
2022-12-20T22:50:11.041Z,4.30
2022-12-20T22:52:13.065Z,3.83
2022-12-20T22:54:15.120Z,3.53
2022-12-20T22:56:19.970Z,4.00
2022-12-20T22:58:22.453Z,3.75
2022-12-20T23:00:25.638Z,3.60
2022-12-20T23:02:28.333Z,4.43
2022-12-20T23:04:30.845Z,3.95
2022-12-20T23:06:32.925Z,4.35
2022-12-20T23:08:36.765Z,3.60
2022-12-20T23:10:43.612Z,3.72
2022-12-20T23:12:48.803Z,3.67
2022-12-20T23:14:58.733Z,3.75
2022-12-20T23:17:05.157Z,3.83
2022-12-20T23:19:07.267Z,4.00
2022-12-20T23:21:12.564Z,3.95
2022-12-20T23:23:14.692Z,4.15
2022-12-20T23:25:20.143Z,3.80
2022-12-20T23:27:22.371Z,3.35
2022-12-20T23:29:24.603Z,3.00
2022-12-20T23:31:26.689Z,4.60
2022-12-20T23:33:28.795Z,3.58
2022-12-20T23:35:30.714Z,3.45
2022-12-20T23:37:32.802Z,3.40
2022-12-20T23:39:34.785Z,3.60
2022-12-20T23:41:36.713Z,4.18
2022-12-20T23:43:38.985Z,3.15
2022-12-20T23:45:41.075Z,3.53
2022-12-20T23:47:43.042Z,5.60
2022-12-20T23:49:44.987Z,3.38
2022-12-20T23:51:47.000Z,3.13
2022-12-20T23:53:52.195Z,3.13
2022-12-20T23:55:59.753Z,3.35
2022-12-20T23:58:01.874Z,3.13
